createdAt,value
2022-10-17T17:41:34.473Z,21.50
2022-10-17T17:44:19.590Z,6.70
2022-10-17T17:46:48.729Z,7.80
2022-10-17T17:49:17.164Z,6.03
2022-10-17T17:51:47.217Z,5.43
2022-10-17T17:54:16.510Z,4.13
2022-10-17T17:56:46.349Z,10.40
2022-10-17T17:59:18.917Z,5.87
2022-10-17T18:01:52.712Z,5.40
2022-10-17T18:04:20.994Z,5.90
2022-10-17T18:06:49.379Z,5.77
2022-10-17T18:09:18.150Z,5.80
2022-10-17T18:11:48.073Z,7.07
2022-10-17T18:14:19.339Z,6.20
2022-10-17T18:16:47.899Z,6.60
2022-10-17T18:22:12.107Z,4.73
2022-10-17T18:24:48.682Z,5.83
2022-10-17T18:27:18.576Z,5.77
2022-10-17T18:29:47.059Z,6.20
2022-10-17T18:32:15.770Z,3.77
2022-10-17T18:34:44.271Z,3.43
2022-10-17T18:37:12.521Z,5.43
2022-10-17T18:39:40.699Z,5.00
2022-10-17T18:42:12.086Z,4.83
2022-10-17T18:44:41.699Z,8.87
2022-10-17T18:47:10.834Z,6.20
2022-10-17T18:49:39.020Z,6.47
2022-10-17T18:52:07.284Z,4.67
2022-10-17T18:54:35.745Z,5.10
2022-10-17T18:57:04.222Z,6.00
2022-10-17T18:59:32.819Z,5.47
2022-10-17T19:02:02.920Z,5.73
2022-10-17T19:04:31.178Z,6.43
2022-10-17T19:06:59.344Z,6.27
2022-10-17T19:09:27.625Z,12.00
2022-10-17T19:11:56.568Z,7.53
2022-10-17T19:14:27.846Z,7.40
2022-10-17T19:16:58.211Z,6.37
2022-10-17T19:19:28.298Z,5.70
2022-10-17T19:21:56.784Z,8.87
2022-10-17T19:24:29.728Z,11.63
2022-10-17T19:27:06.243Z,8.57
2022-10-17T19:29:34.318Z,7.47
2022-10-17T19:37:58.934Z,5.20
2022-10-17T19:40:29.076Z,6.87
2022-10-17T19:43:01.028Z,4.67
2022-10-17T19:45:29.812Z,5.23
2022-10-17T19:47:59.325Z,5.17
2022-10-17T19:50:36.717Z,5.10
2022-10-17T19:53:07.807Z,7.43
2022-10-17T19:55:36.339Z,4.77
2022-10-17T19:58:05.710Z,4.87
2022-10-17T20:00:33.975Z,7.60
2022-10-17T20:03:02.653Z,5.40
2022-10-17T20:05:32.606Z,4.43
2022-10-17T20:08:01.059Z,4.60
2022-10-17T20:10:30.154Z,6.97
2022-10-17T20:12:58.525Z,6.13
2022-10-17T20:15:26.794Z,7.27
2022-10-17T20:17:55.107Z,8.50
2022-10-17T20:20:23.379Z,6.23
2022-10-17T20:22:54.000Z,4.97
2022-10-17T20:25:24.307Z,5.20
2022-10-17T20:27:52.713Z,5.57
2022-10-17T20:30:21.374Z,6.40
2022-10-17T20:32:55.258Z,5.03
2022-10-17T20:35:23.922Z,4.43
2022-10-17T20:37:54.123Z,4.90
2022-10-17T20:40:34.803Z,3.50
2022-10-17T20:43:04.079Z,3.50
2022-10-17T20:45:44.267Z,2.87
2022-10-17T20:48:19.853Z,3.30
2022-10-17T20:50:48.034Z,3.17
2022-10-17T20:53:35.917Z,3.10
2022-10-17T20:56:06.808Z,2.77
2022-10-17T20:58:35.391Z,2.60
2022-10-17T21:01:08.663Z,2.67
2022-10-17T21:03:39.869Z,2.70
2022-10-17T21:06:11.609Z,3.30
2022-10-17T21:08:41.449Z,2.37
2022-10-17T21:11:12.055Z,2.50
2022-10-17T21:13:40.974Z,2.80
2022-10-17T21:16:11.220Z,2.47
2022-10-17T21:18:40.328Z,2.67
2022-10-17T21:21:10.888Z,2.63
2022-10-17T21:23:41.476Z,3.70
2022-10-17T21:26:10.453Z,2.87
2022-10-17T21:28:40.365Z,2.43
2022-10-17T21:31:13.719Z,3.23
2022-10-17T21:33:43.421Z,8.83
2022-10-17T21:36:12.112Z,5.07
2022-10-17T21:38:42.437Z,5.33
2022-10-17T21:41:11.836Z,3.73
2022-10-17T21:43:40.765Z,3.97
2022-10-17T21:46:13.675Z,4.40
2022-10-17T21:48:42.409Z,3.20
2022-10-17T21:51:13.035Z,2.77
2022-10-17T21:53:43.576Z,2.53
2022-10-17T21:56:13.677Z,2.33
2022-10-17T21:58:42.161Z,4.63
2022-10-17T22:01:12.672Z,3.80
2022-10-17T22:03:45.849Z,3.33
2022-10-17T22:09:10.094Z,3.13
2022-10-17T22:11:38.561Z,2.03
2022-10-17T22:14:12.004Z,2.40
2022-10-17T22:16:40.953Z,2.33
2022-10-17T22:19:10.455Z,8.20
2022-10-17T22:21:39.150Z,2.40
2022-10-17T22:24:12.023Z,3.13
2022-10-17T22:26:40.817Z,2.70
2022-10-17T22:29:11.346Z,2.53
2022-10-17T22:31:39.643Z,3.00
2022-10-17T22:34:08.516Z,2.50
2022-10-17T22:36:37.151Z,3.03
2022-10-17T22:39:06.922Z,2.37
2022-10-17T22:41:37.524Z,2.03
2022-10-17T22:44:06.543Z,2.53
2022-10-17T22:46:34.562Z,7.40
2022-10-17T22:49:02.843Z,2.10
2022-10-17T22:51:31.422Z,2.30
2022-10-17T22:56:46.718Z,6.00
2022-10-17T22:59:15.560Z,2.80
2022-10-17T23:01:43.692Z,2.10
2022-10-17T23:04:12.167Z,2.00
2022-10-17T23:06:40.232Z,2.30
2022-10-17T23:09:08.435Z,1.93
2022-10-17T23:11:36.523Z,1.77
2022-10-17T23:14:06.103Z,2.17
2022-10-17T23:16:34.305Z,2.30
2022-10-17T23:19:02.295Z,1.33
2022-10-17T23:21:30.557Z,2.10
2022-10-17T23:23:58.670Z,2.13
2022-10-17T23:26:26.668Z,1.50
2022-10-17T23:28:56.041Z,1.70
2022-10-17T23:31:25.756Z,2.23
2022-10-17T23:33:54.045Z,2.07
2022-10-17T23:36:22.702Z,1.73
2022-10-17T23:38:52.750Z,1.37
2022-10-17T23:41:23.626Z,1.70
2022-10-17T23:43:51.786Z,2.13
2022-10-17T23:46:19.986Z,1.63
2022-10-17T23:48:49.802Z,2.40
2022-10-17T23:51:18.250Z,1.60
2022-10-17T23:53:46.407Z,1.93
2022-10-17T23:56:14.806Z,1.93
2022-10-17T23:58:42.927Z,1.70
